Etusivu
METAR-TAF:

METAR-TAF

Lentoasemat :

Tétouan, Marokko

Leveyspiiri: 35-35N, Pituuspiiri: 005-20W, korkeus merenpinnasta: 10 m

Tämänhetkinen sää

Tämä raportti tehtiin 45 minuuttia sitten, kello 03.00 UTC
Tuuli 6 kn idästä/koillisesta, vaihdellen koillisen ja idän välillä
Lämpötila 19°C
Kosteus 94%
Ilmanpaine 1010 hPa
Näkyvyys: 8000 m
Hajonneita pilviä 1000 ft:n korkeudessa

METAR: GMTN 310300Z 07006KT 040V100 8000 BKN010 19/18 Q1010 NOSIG

Aika: 04:45 (03:45 UTC)


TAF: puuttuu

Säähavainnot ja -ennusteet yli 4000 lentoasemalta (METAR- ja TAF-raportit).

Käytössä olevat sääasemat on merkitty karttaan keltaisilla ja punaisilla pisteillä.

Aseta hiiri pisteen päälle nähdäksesi sääaseman nimen.

Klikkaa sitten nähdäksesi säähavainnot ja -ennusteet.

Kartan vaihtaminen: klikkaa mustalla rastilla varustettuja vihreitä pisteitä, niin voit zoomata sisään; viivalla varustettua vihreää pistettä, niin voit zoomata ulos tai vihreitä nuolia, niin pääset viereisille kartoille.


METAR-TAF: